Time;durP1;ratioP1;P1;durP2;ratioP2;P2;SDS_P1;SDS_P2;PMS_P1;PMS_P2;Temp;Humidity;BMP_temperature;BMP_pressure;BME280_temperature;BME280_humidity;BME280_pressure;Samples;Min_cycle;Max_cycle;Signal;HPM_P1;HPM_P2
2024/02/28 00:00:27;;;;;;;5.20;4.87;;;;;;;;;;6119203;29;20302;-59
2024/02/28 00:03:31;;;;;;;5.30;5.00;;;;;;;;;;6119593;29;20387;-61
2024/02/28 00:06:36;;;;;;;5.63;5.23;;;;;;;;;;6119018;29;20313;-61
2024/02/28 00:09:41;;;;;;;5.53;5.03;;;;;;;;;;6118153;29;20300;-60
2024/02/28 00:12:45;;;;;;;5.17;4.80;;;;;;;;;;6135349;29;20263;-60
2024/02/28 00:15:49;;;;;;;5.50;5.00;;;;;;;;;;6142694;29;20392;-60
2024/02/28 00:19:42;;;;;;;5.00;4.73;;;;;;;;;;6142379;29;20251;-60
2024/02/28 00:24:01;;;;;;;5.00;4.70;;;;;;;;;;6145928;29;20297;-60
2024/02/28 00:28:44;;;;;;;4.40;4.10;;;;;;;;;;6141505;29;20483;-59
2024/02/28 00:33:26;;;;;;;4.93;4.63;;;;;;;;;;6141670;29;20304;-60
2024/02/28 00:38:09;;;;;;;4.77;4.47;;;;;;;;;;6141331;29;20297;-60
2024/02/28 00:42:04;;;;;;;4.23;3.97;;;;;;;;;;6140340;29;20297;-60
2024/02/28 00:45:10;;;;;;;4.43;4.13;;;;;;;;;;6141833;29;20304;-60
2024/02/28 00:48:13;;;;;;;4.57;4.27;;;;;;;;;;6142357;29;20364;-60
2024/02/28 00:51:17;;;;;;;4.63;4.33;;;;;;;;;;6141554;29;20305;-60
2024/02/28 00:54:23;;;;;;;4.43;4.23;;;;;;;;;;6141590;29;20308;-60
2024/02/28 00:57:30;;;;;;;4.70;4.33;;;;;;;;;;6141962;29;20302;-60
2024/02/28 01:00:33;;;;;;;4.23;4.03;;;;;;;;;;6141360;29;20303;-59
2024/02/28 01:03:37;;;;;;;3.70;3.60;;;;;;;;;;6141323;29;20297;-60
2024/02/28 01:06:41;;;;;;;4.60;4.30;;;;;;;;;;6140480;29;20300;-59
2024/02/28 01:09:45;;;;;;;5.17;4.80;;;;;;;;;;6140674;29;20315;-59
2024/02/28 01:12:51;;;;;;;4.23;4.00;;;;;;;;;;6132676;29;20269;-59
2024/02/28 01:15:55;;;;;;;4.47;4.27;;;;;;;;;;6140811;29;20322;-59
2024/02/28 01:18:59;;;;;;;4.17;3.97;;;;;;;;;;6140842;29;20296;-59
2024/02/28 01:22:03;;;;;;;4.17;3.97;;;;;;;;;;6141215;29;20412;-59
2024/02/28 01:25:07;;;;;;;4.37;4.17;;;;;;;;;;6140961;29;20292;-59
2024/02/28 01:28:12;;;;;;;4.30;4.10;;;;;;;;;;6140182;29;20296;-59
2024/02/28 01:31:16;;;;;;;4.53;4.33;;;;;;;;;;6140617;29;20336;-59
2024/02/28 01:34:21;;;;;;;3.97;3.87;;;;;;;;;;6140600;29;20298;-59
2024/02/28 01:37:25;;;;;;;4.23;4.03;;;;;;;;;;6140806;29;20292;-59
2024/02/28 01:40:29;;;;;;;4.57;4.33;;;;;;;;;;6140170;29;20330;-59
2024/02/28 01:43:34;;;;;;;4.03;3.93;;;;;;;;;;6140427;29;20462;-59
2024/02/28 01:46:38;;;;;;;4.30;4.10;;;;;;;;;;6140214;29;20320;-59
2024/02/28 01:49:43;;;;;;;4.63;4.33;;;;;;;;;;6140252;29;20296;-59
2024/02/28 01:52:47;;;;;;;4.63;4.40;;;;;;;;;;6140110;29;20306;-60
2024/02/28 01:55:51;;;;;;;4.40;4.20;;;;;;;;;;6139753;29;20324;-59
2024/02/28 01:58:58;;;;;;;4.03;3.93;;;;;;;;;;6139687;29;20304;-60
2024/02/28 02:02:01;;;;;;;4.77;4.47;;;;;;;;;;6140215;29;20314;-60
2024/02/28 02:05:06;;;;;;;3.83;3.63;;;;;;;;;;6139613;29;20300;-60
2024/02/28 02:08:10;;;;;;;4.63;4.43;;;;;;;;;;6140072;29;20321;-60
2024/02/28 02:11:14;;;;;;;4.20;4.00;;;;;;;;;;6135492;29;20291;-60
2024/02/28 02:14:20;;;;;;;4.27;4.07;;;;;;;;;;6116338;29;20297;-60
2024/02/28 02:17:24;;;;;;;4.73;4.43;;;;;;;;;;6116039;29;20296;-60
2024/02/28 02:20:31;;;;;;;4.03;3.83;;;;;;;;;;6115714;29;20301;-60
2024/02/28 02:23:41;;;;;;;4.27;3.97;;;;;;;;;;6116268;29;20292;-60
2024/02/28 02:26:46;;;;;;;4.20;4.00;;;;;;;;;;6114999;29;20318;-60
2024/02/28 02:29:50;;;;;;;4.20;4.00;;;;;;;;;;6115415;29;20293;-59
2024/02/28 02:32:53;;;;;;;4.67;3.87;;;;;;;;;;6115925;29;20313;-59
2024/02/28 02:35:57;;;;;;;4.13;3.67;;;;;;;;;;6115010;29;20315;-60
2024/02/28 02:39:03;;;;;;;3.70;3.60;;;;;;;;;;6115367;29;20320;-60
2024/02/28 02:42:07;;;;;;;3.80;3.50;;;;;;;;;;6115599;29;20289;-60
2024/02/28 02:45:11;;;;;;;3.60;3.50;;;;;;;;;;6115152;29;20538;-60
2024/02/28 02:48:16;;;;;;;3.67;3.57;;;;;;;;;;6115301;29;20308;-60
2024/02/28 02:51:20;;;;;;;3.67;3.47;;;;;;;;;;6115037;29;20360;-60
2024/02/28 02:54:25;;;;;;;3.87;3.37;;;;;;;;;;6115197;29;20303;-60
2024/02/28 02:57:30;;;;;;;3.50;3.20;;;;;;;;;;6115470;29;20293;-60
2024/02/28 03:00:35;;;;;;;3.63;3.43;;;;;;;;;;6114382;29;20468;-60
2024/02/28 03:03:39;;;;;;;3.37;3.27;;;;;;;;;;6113751;29;20468;-60
2024/02/28 03:06:43;;;;;;;3.60;3.40;;;;;;;;;;6114152;29;20483;-60
2024/02/28 03:09:48;;;;;;;3.27;3.17;;;;;;;;;;6114835;29;20310;-60
2024/02/28 03:12:52;;;;;;;3.07;2.97;;;;;;;;;;6132079;29;20253;-60
2024/02/28 03:15:56;;;;;;;3.70;3.60;;;;;;;;;;6138251;29;20309;-60
2024/02/28 03:18:59;;;;;;;3.03;2.93;;;;;;;;;;6138458;29;20293;-60
2024/02/28 03:22:04;;;;;;;3.23;2.93;;;;;;;;;;6139111;29;20290;-60
2024/02/28 03:25:10;;;;;;;2.93;2.93;;;;;;;;;;6137995;29;20297;-59
2024/02/28 03:28:14;;;;;;;3.30;3.20;;;;;;;;;;6138460;29;20296;-60
2024/02/28 03:31:18;;;;;;;3.10;3.00;;;;;;;;;;6138333;29;20305;-60
2024/02/28 03:34:21;;;;;;;3.10;3.00;;;;;;;;;;6138488;29;20307;-60
2024/02/28 03:37:25;;;;;;;3.37;3.10;;;;;;;;;;6138816;29;20309;-60
2024/02/28 03:40:31;;;;;;;3.23;3.03;;;;;;;;;;6138020;29;20619;-59
2024/02/28 03:43:34;;;;;;;3.17;2.97;;;;;;;;;;6138311;29;20451;-60
2024/02/28 03:46:38;;;;;;;2.77;2.77;;;;;;;;;;6137746;29;20313;-60
2024/02/28 03:49:42;;;;;;;3.40;3.17;;;;;;;;;;6138149;29;20296;-61
2024/02/28 03:52:47;;;;;;;3.10;3.00;;;;;;;;;;6138623;29;20461;-60
2024/02/28 03:55:52;;;;;;;2.90;2.80;;;;;;;;;;6138166;29;20342;-60
2024/02/28 03:58:57;;;;;;;2.87;2.77;;;;;;;;;;6138199;29;20299;-60
2024/02/28 04:02:01;;;;;;;3.10;3.07;;;;;;;;;;6122645;29;20357;-61
2024/02/28 04:05:05;;;;;;;2.70;2.70;;;;;;;;;;6127714;29;20300;-60
2024/02/28 04:08:09;;;;;;;3.00;2.90;;;;;;;;;;6118306;29;20305;-59
2024/02/28 04:11:14;;;;;;;2.70;2.70;;;;;;;;;;6123983;29;20288;-59
2024/02/28 04:14:18;;;;;;;3.10;3.00;;;;;;;;;;6137618;29;20310;-60
2024/02/28 04:17:22;;;;;;;2.93;2.90;;;;;;;;;;6141576;29;20429;-59
2024/02/28 04:20:26;;;;;;;3.80;3.50;;;;;;;;;;6127085;29;20322;-60
2024/02/28 04:23:30;;;;;;;3.70;3.50;;;;;;;;;;6118201;29;20472;-60
2024/02/28 04:26:35;;;;;;;3.20;3.10;;;;;;;;;;6118789;29;20291;-60
2024/02/28 04:29:39;;;;;;;3.70;3.60;;;;;;;;;;6118587;29;20616;-60
2024/02/28 04:32:43;;;;;;;3.33;3.23;;;;;;;;;;6118752;29;20304;-60
2024/02/28 04:35:47;;;;;;;3.67;3.57;;;;;;;;;;6119638;29;20308;-60
2024/02/28 04:38:51;;;;;;;3.07;2.97;;;;;;;;;;6142280;29;20302;-60
2024/02/28 04:41:56;;;;;;;3.50;3.40;;;;;;;;;;6142824;29;20299;-60
2024/02/28 04:45:01;;;;;;;3.37;3.27;;;;;;;;;;6141757;29;20295;-60
2024/02/28 04:48:06;;;;;;;3.40;3.23;;;;;;;;;;6141242;29;20301;-60
2024/02/28 04:51:09;;;;;;;3.37;3.27;;;;;;;;;;6141603;29;20451;-60
2024/02/28 04:54:14;;;;;;;3.17;3.07;;;;;;;;;;6141628;29;20303;-60
2024/02/28 04:57:19;;;;;;;3.60;3.40;;;;;;;;;;6142008;29;20308;-60
2024/02/28 05:00:23;;;;;;;3.33;3.13;;;;;;;;;;6141698;29;20567;-60
2024/02/28 05:03:27;;;;;;;3.53;3.40;;;;;;;;;;6141514;29;20297;-60
2024/02/28 05:06:31;;;;;;;3.57;3.47;;;;;;;;;;6141770;29;20311;-60
2024/02/28 05:09:35;;;;;;;3.30;3.20;;;;;;;;;;6141176;29;20300;-60
2024/02/28 05:12:40;;;;;;;3.70;3.50;;;;;;;;;;6117382;29;20281;-60
2024/02/28 05:15:44;;;;;;;3.60;3.50;;;;;;;;;;6117507;29;20607;-60
2024/02/28 05:18:48;;;;;;;3.70;3.60;;;;;;;;;;6115414;29;20565;-60
2024/02/28 05:21:53;;;;;;;4.20;4.00;;;;;;;;;;6117288;29;20250;-60
2024/02/28 05:24:57;;;;;;;3.53;3.43;;;;;;;;;;6117008;29;20311;-60
2024/02/28 05:28:02;;;;;;;4.00;3.80;;;;;;;;;;6117052;29;20306;-60
2024/02/28 05:31:22;;;;;;;4.13;3.73;;;;;;;;;;6116572;29;20297;-60
2024/02/28 05:34:26;;;;;;;4.30;4.10;;;;;;;;;;6117255;29;20298;-60
2024/02/28 05:37:30;;;;;;;4.30;4.00;;;;;;;;;;6117447;29;20609;-60
2024/02/28 05:40:34;;;;;;;4.00;3.80;;;;;;;;;;6116831;29;20300;-59
2024/02/28 05:43:39;;;;;;;8.20;3.97;;;;;;;;;;6116198;29;20293;-59
2024/02/28 05:46:43;;;;;;;3.33;3.27;;;;;;;;;;6117623;29;20313;-60
2024/02/28 05:49:47;;;;;;;3.83;3.73;;;;;;;;;;6115796;29;20306;-60
2024/02/28 05:52:51;;;;;;;4.03;3.83;;;;;;;;;;6117075;29;20305;-60
2024/02/28 05:55:56;;;;;;;3.73;3.50;;;;;;;;;;6116622;29;20310;-60
2024/02/28 05:59:02;;;;;;;4.10;3.90;;;;;;;;;;6116570;29;20299;-60
2024/02/28 06:02:06;;;;;;;4.13;3.83;;;;;;;;;;6116675;29;20301;-60
2024/02/28 06:05:10;;;;;;;4.17;3.87;;;;;;;;;;6116110;29;20293;-60
2024/02/28 06:08:15;;;;;;;3.77;3.57;;;;;;;;;;6115986;29;20305;-60
2024/02/28 06:11:19;;;;;;;4.03;3.80;;;;;;;;;;6128770;29;20387;-60
2024/02/28 06:14:24;;;;;;;4.30;4.10;;;;;;;;;;6139729;29;20589;-60
2024/02/28 06:17:28;;;;;;;4.27;3.83;;;;;;;;;;6140156;29;20296;-60
2024/02/28 06:20:32;;;;;;;4.10;3.90;;;;;;;;;;6139826;29;20480;-60
2024/02/28 06:23:36;;;;;;;4.40;4.10;;;;;;;;;;6139669;29;20285;-59
2024/02/28 06:26:41;;;;;;;4.33;4.13;;;;;;;;;;6139741;29;20300;-60
2024/02/28 06:29:47;;;;;;;4.50;4.20;;;;;;;;;;6139562;29;20466;-61
2024/02/28 06:32:51;;;;;;;4.63;4.33;;;;;;;;;;6139751;29;20302;-59
2024/02/28 06:35:57;;;;;;;4.43;4.13;;;;;;;;;;6139177;29;20297;-59
2024/02/28 06:39:00;;;;;;;4.43;4.10;;;;;;;;;;6138699;29;20299;-60
2024/02/28 06:42:04;;;;;;;4.47;4.00;;;;;;;;;;6139831;29;20304;-60
2024/02/28 06:45:10;;;;;;;4.17;3.97;;;;;;;;;;6139094;29;20455;-60
2024/02/28 06:48:14;;;;;;;5.27;4.43;;;;;;;;;;6138955;29;20301;-60
2024/02/28 06:51:18;;;;;;;4.47;4.17;;;;;;;;;;6139540;29;20377;-60
2024/02/28 06:54:22;;;;;;;4.47;4.27;;;;;;;;;;6138746;29;20316;-60
2024/02/28 06:57:26;;;;;;;4.63;4.27;;;;;;;;;;6139067;29;20300;-60
2024/02/28 07:00:32;;;;;;;4.40;4.00;;;;;;;;;;6138650;29;20381;-60
2024/02/28 07:03:36;;;;;;;4.10;3.80;;;;;;;;;;6138595;29;20584;-58
2024/02/28 07:06:40;;;;;;;3.90;3.70;;;;;;;;;;6138202;29;20444;-60
2024/02/28 07:09:44;;;;;;;4.07;3.97;;;;;;;;;;6138488;29;20305;-60
2024/02/28 07:12:48;;;;;;;3.57;3.47;;;;;;;;;;6114847;29;20245;-59
2024/02/28 07:15:54;;;;;;;3.50;3.30;;;;;;;;;;6114814;29;20586;-59
2024/02/28 07:18:58;;;;;;;3.67;3.50;;;;;;;;;;6113923;29;20296;-59
2024/02/28 07:22:03;;;;;;;3.57;3.47;;;;;;;;;;6115105;29;20299;-59
2024/02/28 07:25:08;;;;;;;4.65;4.28;;;;;;;;;;6113455;29;20456;-59
2024/02/28 07:28:13;;;;;;;3.50;3.33;;;;;;;;;;6114308;29;20300;-59
2024/02/28 07:31:18;;;;;;;3.90;3.60;;;;;;;;;;6115103;29;20478;-60
2024/02/28 07:34:22;;;;;;;3.50;3.20;;;;;;;;;;6114745;29;20577;-60
2024/02/28 07:37:26;;;;;;;3.77;3.37;;;;;;;;;;6115224;29;20559;-60
2024/02/28 07:40:30;;;;;;;3.07;2.97;;;;;;;;;;6114756;29;20616;-59
2024/02/28 07:43:37;;;;;;;3.57;3.30;;;;;;;;;;6114321;29;20301;-61
2024/02/28 07:46:44;;;;;;;3.40;3.27;;;;;;;;;;6114414;29;20319;-60
2024/02/28 07:49:48;;;;;;;3.70;3.50;;;;;;;;;;6114680;29;20304;-61
2024/02/28 07:52:55;;;;;;;3.97;3.67;;;;;;;;;;6119638;29;20307;-58
2024/02/28 07:55:59;;;;;;;3.10;3.00;;;;;;;;;;6118881;29;20346;-59
2024/02/28 07:59:03;;;;;;;4.70;3.13;;;;;;;;;;6118566;29;20594;-59
2024/02/28 08:02:09;;;;;;;3.60;3.40;;;;;;;;;;6119265;29;20602;-59
2024/02/28 08:05:14;;;;;;;4.60;3.27;;;;;;;;;;6118507;29;20310;-59
2024/02/28 08:08:18;;;;;;;3.43;3.20;;;;;;;;;;6118831;29;20303;-59
2024/02/28 08:11:23;;;;;;;4.30;3.50;;;;;;;;;;6132331;29;20306;-59
2024/02/28 08:14:28;;;;;;;3.10;3.00;;;;;;;;;;6142348;29;20300;-59
2024/02/28 08:17:33;;;;;;;2.87;2.87;;;;;;;;;;6142751;29;20372;-59
2024/02/28 08:20:37;;;;;;;2.83;2.77;;;;;;;;;;6142226;29;20300;-59
2024/02/28 08:23:41;;;;;;;3.97;3.20;;;;;;;;;;6141758;29;20313;-59
2024/02/28 08:26:45;;;;;;;3.07;2.90;;;;;;;;;;6142161;29;20300;-60
2024/02/28 08:29:49;;;;;;;2.87;2.77;;;;;;;;;;6142049;29;20323;-60
2024/02/28 08:32:55;;;;;;;2.83;2.77;;;;;;;;;;6142498;29;20301;-61
2024/02/28 08:35:58;;;;;;;2.73;2.70;;;;;;;;;;6141934;29;20308;-60
2024/02/28 08:39:04;;;;;;;3.40;3.30;;;;;;;;;;6141947;29;20310;-60
2024/02/28 08:42:08;;;;;;;5.50;3.10;;;;;;;;;;6141817;29;20539;-60
2024/02/28 08:45:12;;;;;;;3.40;3.10;;;;;;;;;;6141774;29;20297;-60
2024/02/28 08:48:17;;;;;;;3.73;2.67;;;;;;;;;;6141026;29;20309;-60
2024/02/28 08:51:21;;;;;;;3.93;2.70;;;;;;;;;;6141963;29;20305;-60
2024/02/28 08:54:26;;;;;;;4.97;2.60;;;;;;;;;;6141285;29;20368;-60
2024/02/28 08:57:30;;;;;;;2.83;2.70;;;;;;;;;;6141860;29;20295;-59
2024/02/28 09:00:34;;;;;;;2.90;2.70;;;;;;;;;;6141239;29;20286;-60
2024/02/28 09:03:39;;;;;;;3.23;3.03;;;;;;;;;;6139473;29;20300;-60
2024/02/28 09:06:43;;;;;;;4.20;3.43;;;;;;;;;;6141651;29;20241;-59
2024/02/28 09:09:49;;;;;;;3.03;2.77;;;;;;;;;;6140338;29;20306;-59
2024/02/28 09:12:53;;;;;;;4.97;3.00;;;;;;;;;;6117545;29;20242;-61
2024/02/28 09:15:57;;;;;;;3.33;3.20;;;;;;;;;;6117359;29;20579;-59
2024/02/28 09:19:03;;;;;;;3.73;3.10;;;;;;;;;;6117620;29;20437;-59
2024/02/28 09:22:08;;;;;;;2.93;2.80;;;;;;;;;;6117572;29;20294;-59
2024/02/28 09:25:11;;;;;;;3.30;3.00;;;;;;;;;;6117002;29;20298;-59
2024/02/28 09:28:16;;;;;;;4.77;2.43;;;;;;;;;;6117002;29;20297;-59
2024/02/28 09:31:19;;;;;;;2.97;2.77;;;;;;;;;;6117478;29;20301;-59
2024/02/28 09:34:25;;;;;;;3.60;2.73;;;;;;;;;;6116541;29;20300;-60
2024/02/28 09:37:29;;;;;;;2.70;2.50;;;;;;;;;;6117681;29;20298;-60
2024/02/28 09:40:32;;;;;;;2.73;2.53;;;;;;;;;;6116904;29;20487;-60
2024/02/28 09:43:41;;;;;;;2.83;2.63;;;;;;;;;;6116811;29;20596;-60
2024/02/28 09:46:45;;;;;;;2.70;2.60;;;;;;;;;;6112763;29;20329;-60
2024/02/28 09:49:53;;;;;;;3.73;2.80;;;;;;;;;;6116738;29;20490;-60
2024/02/28 09:52:57;;;;;;;4.87;3.07;;;;;;;;;;6116752;29;20309;-60
2024/02/28 09:56:13;;;;;;;3.10;2.90;;;;;;;;;;6116005;29;20308;-60
2024/02/28 09:59:17;;;;;;;3.03;2.93;;;;;;;;;;6116447;29;20299;-60
2024/02/28 10:02:21;;;;;;;3.57;3.30;;;;;;;;;;6116743;29;20315;-60
2024/02/28 10:05:28;;;;;;;3.70;3.10;;;;;;;;;;6116697;29;20364;-59
2024/02/28 10:08:34;;;;;;;4.07;3.20;;;;;;;;;;6116211;29;20294;-60
2024/02/28 10:11:40;;;;;;;3.20;3.00;;;;;;;;;;6131489;29;20302;-59
2024/02/28 10:14:45;;;;;;;3.40;3.10;;;;;;;;;;6139692;29;20298;-59
2024/02/28 10:17:49;;;;;;;2.90;2.80;;;;;;;;;;6140317;29;20449;-61
2024/02/28 10:20:55;;;;;;;4.57;3.40;;;;;;;;;;6139480;29;20574;-60
2024/02/28 10:23:59;;;;;;;5.27;3.77;;;;;;;;;;6139862;29;20297;-60
2024/02/28 10:27:08;;;;;;;8.67;2.97;;;;;;;;;;6140339;29;20294;-60
2024/02/28 10:30:12;;;;;;;2.87;2.70;;;;;;;;;;6139579;29;20302;-61
2024/02/28 10:33:16;;;;;;;4.47;3.30;;;;;;;;;;6139038;29;20307;-60
2024/02/28 10:36:22;;;;;;;3.00;2.80;;;;;;;;;;6139659;29;20298;-60
2024/02/28 10:39:28;;;;;;;4.20;3.90;;;;;;;;;;6138938;29;20495;-60
2024/02/28 10:42:32;;;;;;;7.80;3.30;;;;;;;;;;6139455;29;20328;-61
2024/02/28 10:45:38;;;;;;;6.70;3.37;;;;;;;;;;6139914;29;20305;-60
2024/02/28 10:49:02;;;;;;;3.33;3.03;;;;;;;;;;6138467;29;20289;-60
2024/02/28 10:52:10;;;;;;;3.03;2.83;;;;;;;;;;6139150;29;20301;-60
2024/02/28 10:55:17;;;;;;;4.17;2.50;;;;;;;;;;6138668;29;20286;-59
2024/02/28 10:58:23;;;;;;;4.67;2.67;;;;;;;;;;6138968;29;20338;-60
2024/02/28 11:01:27;;;;;;;3.07;2.70;;;;;;;;;;6139382;29;20301;-60
2024/02/28 11:04:31;;;;;;;2.90;2.70;;;;;;;;;;6138689;29;20302;-61
2024/02/28 11:07:37;;;;;;;3.67;2.27;;;;;;;;;;6139239;29;20435;-60
2024/02/28 11:10:46;;;;;;;2.67;2.57;;;;;;;;;;6130577;29;20482;-59
2024/02/28 11:13:53;;;;;;;3.97;2.37;;;;;;;;;;6114776;29;20292;-59
2024/02/28 11:17:02;;;;;;;2.70;2.57;;;;;;;;;;6115179;29;20311;-61
2024/02/28 11:20:12;;;;;;;9.93;3.27;;;;;;;;;;6115025;29;20319;-60
2024/02/28 11:23:19;;;;;;;5.03;3.00;;;;;;;;;;6114886;29;20307;-60
2024/02/28 11:26:24;;;;;;;3.50;2.70;;;;;;;;;;6120225;29;20303;-60
2024/02/28 11:29:29;;;;;;;8.07;2.80;;;;;;;;;;6122749;29;20307;-61
2024/02/28 11:32:33;;;;;;;3.10;3.00;;;;;;;;;;6122933;29;20302;-60
2024/02/28 11:35:38;;;;;;;2.87;2.40;;;;;;;;;;6122541;29;20295;-61
2024/02/28 11:38:43;;;;;;;2.70;2.60;;;;;;;;;;6122486;29;20481;-60
2024/02/28 11:41:47;;;;;;;3.70;2.70;;;;;;;;;;6122770;29;20311;-60
2024/02/28 11:44:55;;;;;;;7.53;2.70;;;;;;;;;;6122516;29;20322;-61
2024/02/28 11:48:04;;;;;;;6.83;3.50;;;;;;;;;;6122403;29;20324;-60
2024/02/28 11:51:08;;;;;;;4.57;3.30;;;;;;;;;;6122855;29;20300;-61
2024/02/28 11:54:13;;;;;;;9.27;3.43;;;;;;;;;;6122100;29;20295;-60
2024/02/28 11:57:17;;;;;;;7.20;3.40;;;;;;;;;;6123040;29;20603;-59
2024/02/28 12:00:22;;;;;;;4.30;2.90;;;;;;;;;;6122959;29;20575;-61
2024/02/28 12:03:27;;;;;;;7.87;3.50;;;;;;;;;;6122660;29;20306;-60
2024/02/28 12:06:31;;;;;;;9.57;3.60;;;;;;;;;;6122991;29;20327;-60
2024/02/28 12:09:36;;;;;;;3.53;3.27;;;;;;;;;;6122521;29;20302;-61
2024/02/28 12:12:45;;;;;;;3.27;3.07;;;;;;;;;;6098275;29;20291;-60
2024/02/28 12:15:50;;;;;;;3.77;3.47;;;;;;;;;;6098712;29;20311;-60
2024/02/28 12:18:54;;;;;;;19.93;3.20;;;;;;;;;;6098651;29;20304;-60
2024/02/28 12:21:58;;;;;;;4.87;3.60;;;;;;;;;;6098939;29;20315;-59
2024/02/28 12:25:06;;;;;;;3.50;3.30;;;;;;;;;;6098321;29;20303;-60
2024/02/28 12:28:11;;;;;;;9.70;3.70;;;;;;;;;;6098665;29;20296;-61
2024/02/28 12:31:15;;;;;;;6.93;3.03;;;;;;;;;;6098934;29;20315;-60
2024/02/28 12:34:19;;;;;;;7.47;3.30;;;;;;;;;;6098083;29;20303;-60
2024/02/28 12:37:23;;;;;;;4.90;3.17;;;;;;;;;;6096955;29;20303;-64
2024/02/28 12:40:28;;;;;;;7.37;3.17;;;;;;;;;;6094962;29;20298;-60
2024/02/28 12:43:32;;;;;;;5.53;3.87;;;;;;;;;;6094486;29;20475;-60
2024/02/28 12:46:37;;;;;;;4.87;3.70;;;;;;;;;;6095012;29;20308;-60
2024/02/28 12:49:41;;;;;;;7.93;3.60;;;;;;;;;;6094511;29;20309;-60
2024/02/28 12:52:45;;;;;;;11.40;3.93;;;;;;;;;;6094942;29;20354;-60
2024/02/28 12:55:50;;;;;;;3.57;3.47;;;;;;;;;;6094788;29;20476;-60
2024/02/28 12:58:54;;;;;;;10.03;3.67;;;;;;;;;;6094644;29;20588;-60
2024/02/28 13:01:57;;;;;;;5.27;3.57;;;;;;;;;;6095148;29;20313;-61
2024/02/28 13:05:02;;;;;;;7.60;3.73;;;;;;;;;;6094595;29;20299;-61
2024/02/28 13:08:07;;;;;;;7.93;3.90;;;;;;;;;;6094302;29;20300;-61
2024/02/28 13:11:12;;;;;;;5.03;3.53;;;;;;;;;;6117102;29;20295;-61
2024/02/28 13:14:16;;;;;;;6.17;3.50;;;;;;;;;;6100802;29;20300;-60
2024/02/28 13:17:20;;;;;;;7.23;3.53;;;;;;;;;;6094327;29;20292;-61
2024/02/28 13:20:24;;;;;;;8.07;3.20;;;;;;;;;;6093897;29;20327;-60
2024/02/28 13:23:28;;;;;;;9.33;3.67;;;;;;;;;;6094032;29;20296;-61
2024/02/28 13:26:33;;;;;;;7.17;3.60;;;;;;;;;;6094324;29;20308;-60
2024/02/28 13:29:37;;;;;;;5.90;3.60;;;;;;;;;;6093957;29;20296;-60
2024/02/28 13:32:41;;;;;;;3.67;3.37;;;;;;;;;;6094266;29;20307;-60
2024/02/28 13:35:45;;;;;;;3.70;3.40;;;;;;;;;;6093860;29;20300;-61
2024/02/28 13:38:49;;;;;;;5.27;2.93;;;;;;;;;;6093529;29;20296;-61
2024/02/28 13:41:55;;;;;;;8.20;3.03;;;;;;;;;;6094222;29;20352;-60
2024/02/28 13:44:59;;;;;;;5.43;3.57;;;;;;;;;;6093833;29;20299;-61
2024/02/28 13:48:03;;;;;;;5.63;3.03;;;;;;;;;;6092486;29;20311;-61
2024/02/28 13:51:08;;;;;;;3.97;3.00;;;;;;;;;;6093520;29;20340;-60
2024/02/28 13:54:11;;;;;;;3.93;3.33;;;;;;;;;;6093277;29;20300;-60
2024/02/28 13:57:17;;;;;;;20.30;3.50;;;;;;;;;;6094091;29;20321;-60
2024/02/28 14:00:21;;;;;;;2.80;2.70;;;;;;;;;;6093021;29;20292;-60
2024/02/28 14:03:25;;;;;;;3.30;2.77;;;;;;;;;;6092869;29;20301;-61
2024/02/28 14:06:29;;;;;;;6.13;2.77;;;;;;;;;;6093503;29;20300;-60
2024/02/28 14:09:33;;;;;;;4.10;2.83;;;;;;;;;;6093050;29;20293;-60
2024/02/28 14:12:38;;;;;;;5.77;2.63;;;;;;;;;;6138125;29;20302;-60
2024/02/28 14:15:42;;;;;;;9.88;2.80;;;;;;;;;;6138818;29;20592;-61
2024/02/28 14:18:46;;;;;;;2.40;2.30;;;;;;;;;;6140193;29;20301;-61
2024/02/28 14:21:51;;;;;;;4.03;2.40;;;;;;;;;;6139947;29;20239;-61
2024/02/28 14:24:56;;;;;;;2.50;2.40;;;;;;;;;;6139422;29;20302;-61
2024/02/28 14:28:01;;;;;;;7.67;2.40;;;;;;;;;;6139785;29;20457;-61
2024/02/28 14:31:06;;;;;;;2.87;2.57;;;;;;;;;;6139411;29;20589;-60
2024/02/28 14:34:10;;;;;;;7.47;2.10;;;;;;;;;;6139173;29;20303;-60
2024/02/28 14:37:14;;;;;;;5.07;2.40;;;;;;;;;;6139788;29;20291;-60
2024/02/28 14:40:18;;;;;;;6.33;2.20;;;;;;;;;;6139172;29;20294;-59
2024/02/28 14:43:23;;;;;;;5.10;2.40;;;;;;;;;;6139259;29;20463;-60
2024/02/28 14:46:27;;;;;;;2.17;2.00;;;;;;;;;;6139633;29;20307;-60
2024/02/28 14:49:31;;;;;;;2.50;2.10;;;;;;;;;;6139428;29;20311;-60
2024/02/28 14:52:35;;;;;;;5.10;2.70;;;;;;;;;;6139543;29;20307;-60
2024/02/28 14:55:39;;;;;;;2.60;2.20;;;;;;;;;;6139254;29;20575;-60
2024/02/28 14:58:45;;;;;;;6.83;2.17;;;;;;;;;;6139238;29;20324;-60
2024/02/28 15:01:48;;;;;;;4.80;2.37;;;;;;;;;;6138552;29;20302;-60
2024/02/28 15:04:52;;;;;;;2.17;2.17;;;;;;;;;;6138698;29;20362;-60
2024/02/28 15:07:56;;;;;;;4.57;2.13;;;;;;;;;;6138792;29;20306;-60
2024/02/28 15:11:00;;;;;;;3.33;2.40;;;;;;;;;;6128505;29;20303;-60
2024/02/28 15:14:06;;;;;;;2.30;2.20;;;;;;;;;;6114839;29;20393;-60
2024/02/28 15:17:09;;;;;;;3.07;2.37;;;;;;;;;;6114964;29;20323;-60
2024/02/28 15:20:14;;;;;;;5.70;2.50;;;;;;;;;;6114726;29;20505;-59
2024/02/28 15:23:17;;;;;;;2.57;2.40;;;;;;;;;;6114791;29;20310;-59
2024/02/28 15:26:21;;;;;;;3.00;2.57;;;;;;;;;;6115440;29;20382;-60
2024/02/28 15:29:40;;;;;;;6.43;2.67;;;;;;;;;;6114494;29;20299;-59
2024/02/28 15:32:45;;;;;;;6.67;2.33;;;;;;;;;;6115224;29;20361;-60
2024/02/28 15:35:49;;;;;;;2.70;2.60;;;;;;;;;;6114601;29;20291;-60
2024/02/28 15:38:53;;;;;;;5.53;2.67;;;;;;;;;;6114560;29;20303;-59
2024/02/28 15:41:57;;;;;;;2.60;2.50;;;;;;;;;;6115111;29;20302;-59
2024/02/28 15:45:03;;;;;;;3.27;2.43;;;;;;;;;;6114963;29;20506;-59
2024/02/28 15:48:08;;;;;;;2.83;2.63;;;;;;;;;;6114603;29;20308;-60
2024/02/28 15:51:11;;;;;;;4.30;2.60;;;;;;;;;;6115198;29;20459;-59
2024/02/28 15:54:15;;;;;;;3.30;3.00;;;;;;;;;;6114876;29;20606;-59
2024/02/28 15:57:20;;;;;;;4.30;3.03;;;;;;;;;;6115266;29;20314;-59
2024/02/28 16:00:25;;;;;;;3.10;2.83;;;;;;;;;;6114564;29;20296;-60
2024/02/28 16:03:29;;;;;;;2.70;2.50;;;;;;;;;;6114554;29;20294;-59
2024/02/28 16:06:33;;;;;;;6.23;3.03;;;;;;;;;;6115326;29;20599;-62
2024/02/28 16:09:44;;;;;;;6.60;2.77;;;;;;;;;;6114374;29;20319;-60
2024/02/28 16:12:50;;;;;;;3.50;3.00;;;;;;;;;;6118188;29;20244;-60
2024/02/28 16:15:55;;;;;;;2.70;2.53;;;;;;;;;;6119407;29;20310;-61
2024/02/28 16:18:59;;;;;;;3.10;3.00;;;;;;;;;;6118781;29;20477;-61
2024/02/28 16:22:09;;;;;;;2.97;2.77;;;;;;;;;;6118978;29;20300;-60
2024/02/28 16:25:14;;;;;;;7.03;3.07;;;;;;;;;;6118730;29;20441;-60
2024/02/28 16:28:18;;;;;;;5.03;2.63;;;;;;;;;;6118696;29;20303;-59
2024/02/28 16:31:23;;;;;;;3.20;3.00;;;;;;;;;;6119059;29;20322;-60
2024/02/28 16:34:27;;;;;;;2.93;2.70;;;;;;;;;;6118339;29;20303;-60
2024/02/28 16:37:32;;;;;;;3.00;2.90;;;;;;;;;;6118604;29;20300;-61
2024/02/28 16:40:36;;;;;;;3.13;2.97;;;;;;;;;;6118356;29;20591;-60
2024/02/28 16:43:40;;;;;;;4.10;2.90;;;;;;;;;;6118132;29;20295;-61
2024/02/28 16:46:45;;;;;;;4.93;3.27;;;;;;;;;;6118629;29;20474;-60
2024/02/28 16:49:49;;;;;;;7.28;4.07;;;;;;;;;;6116557;29;20457;-60
2024/02/28 16:52:53;;;;;;;4.57;3.37;;;;;;;;;;6118636;29;20304;-61
2024/02/28 16:55:58;;;;;;;6.03;4.00;;;;;;;;;;6118349;29;20307;-61
2024/02/28 16:59:02;;;;;;;6.17;3.43;;;;;;;;;;6117743;29;20475;-60
2024/02/28 17:02:07;;;;;;;4.23;3.63;;;;;;;;;;6118186;29;20303;-60
2024/02/28 17:05:13;;;;;;;5.67;3.40;;;;;;;;;;6117648;29;20299;-61
2024/02/28 17:08:17;;;;;;;3.30;3.20;;;;;;;;;;6117680;29;20301;-61
2024/02/28 17:11:21;;;;;;;4.17;3.33;;;;;;;;;;6130746;29;20302;-60
2024/02/28 17:14:25;;;;;;;3.27;3.17;;;;;;;;;;6141441;29;20326;-61
2024/02/28 17:17:31;;;;;;;4.17;3.80;;;;;;;;;;6142056;29;20341;-60
2024/02/28 17:20:34;;;;;;;4.23;3.93;;;;;;;;;;6141545;29;20315;-61
2024/02/28 17:23:39;;;;;;;3.60;3.37;;;;;;;;;;6140263;28;20298;-61
2024/02/28 17:26:43;;;;;;;12.10;3.87;;;;;;;;;;6141476;29;20301;-60
2024/02/28 17:29:48;;;;;;;5.13;3.73;;;;;;;;;;6141084;29;20314;-60
2024/02/28 17:32:53;;;;;;;7.40;4.73;;;;;;;;;;6141440;29;20316;-60
2024/02/28 17:35:57;;;;;;;7.00;4.40;;;;;;;;;;6141123;29;20305;-60
2024/02/28 17:39:01;;;;;;;4.90;3.77;;;;;;;;;;6140959;29;20315;-61
2024/02/28 17:42:07;;;;;;;9.03;4.30;;;;;;;;;;6140074;29;20474;-60
2024/02/28 17:45:11;;;;;;;7.83;4.30;;;;;;;;;;6141102;29;20300;-59
2024/02/28 17:48:17;;;;;;;11.00;5.27;;;;;;;;;;6140868;29;20311;-59
2024/02/28 17:51:21;;;;;;;14.37;7.07;;;;;;;;;;6141118;29;20315;-61
2024/02/28 17:54:25;;;;;;;10.00;5.67;;;;;;;;;;6140749;29;20314;-59
2024/02/28 17:57:32;;;;;;;10.43;5.30;;;;;;;;;;6141151;29;20293;-62
2024/02/28 18:00:36;;;;;;;8.63;5.00;;;;;;;;;;6140481;29;20307;-60
2024/02/28 18:03:41;;;;;;;9.80;4.53;;;;;;;;;;6139691;29;20305;-60
2024/02/28 18:06:46;;;;;;;3.60;3.50;;;;;;;;;;6140614;29;20246;-60
2024/02/28 18:09:50;;;;;;;6.70;4.20;;;;;;;;;;6138892;29;20586;-59
2024/02/28 18:12:54;;;;;;;7.83;5.30;;;;;;;;;;6116603;29;20248;-60
2024/02/28 18:15:58;;;;;;;12.20;6.60;;;;;;;;;;6116332;29;20298;-60
2024/02/28 18:19:04;;;;;;;16.23;6.57;;;;;;;;;;6115898;29;20294;-59
2024/02/28 18:22:08;;;;;;;7.33;5.23;;;;;;;;;;6117008;29;20296;-61
2024/02/28 18:25:12;;;;;;;8.60;5.43;;;;;;;;;;6115266;29;20307;-61
2024/02/28 18:28:17;;;;;;;10.37;6.37;;;;;;;;;;6116149;29;20293;-61
2024/02/28 18:31:21;;;;;;;14.40;6.37;;;;;;;;;;6116559;29;20303;-60
2024/02/28 18:34:26;;;;;;;9.50;5.87;;;;;;;;;;6115796;29;20300;-59